sensor_id;sensor_type;location;lat;lon;timestamp;pressure;altitude;pressure_sealevel;temperature;humidity
21545;BME280;10933;50.754;11.508;2024-03-07T00:00:06;100497.97;;;4.51;100.00
21545;BME280;10933;50.754;11.508;2024-03-07T00:02:44;100503.06;;;4.46;100.00
21545;BME280;10933;50.754;11.508;2024-03-07T00:05:11;100507.38;;;4.47;100.00
21545;BME280;10933;50.754;11.508;2024-03-07T00:07:42;100493.19;;;4.47;100.00
21545;BME280;10933;50.754;11.508;2024-03-07T00:10:08;100501.41;;;4.45;100.00
21545;BME280;10933;50.754;11.508;2024-03-07T00:12:36;100501.56;;;4.43;100.00
21545;BME280;10933;50.754;11.508;2024-03-07T00:15:03;100493.75;;;4.42;100.00
21545;BME280;10933;50.754;11.508;2024-03-07T00:17:29;100500.75;;;4.43;100.00
21545;BME280;10933;50.754;11.508;2024-03-07T00:19:55;100493.09;;;4.40;100.00
21545;BME280;10933;50.754;11.508;2024-03-07T00:22:22;100493.69;;;4.35;100.00
21545;BME280;10933;50.754;11.508;2024-03-07T00:24:48;100503.53;;;4.35;100.00
21545;BME280;10933;50.754;11.508;2024-03-07T00:27:15;100508.09;;;4.56;100.00
21545;BME280;10933;50.754;11.508;2024-03-07T00:29:41;100510.16;;;4.39;100.00
21545;BME280;10933;50.754;11.508;2024-03-07T00:32:08;100508.13;;;4.41;100.00
21545;BME280;10933;50.754;11.508;2024-03-07T00:34:35;100504.56;;;4.34;100.00
21545;BME280;10933;50.754;11.508;2024-03-07T00:37:02;100504.63;;;4.40;100.00
21545;BME280;10933;50.754;11.508;2024-03-07T00:39:28;100505.06;;;4.44;100.00
21545;BME280;10933;50.754;11.508;2024-03-07T00:41:54;100504.81;;;4.39;100.00
21545;BME280;10933;50.754;11.508;2024-03-07T00:44:20;100497.88;;;4.44;100.00
21545;BME280;10933;50.754;11.508;2024-03-07T00:46:47;100495.88;;;4.32;100.00
21545;BME280;10933;50.754;11.508;2024-03-07T00:49:13;100499.84;;;4.36;100.00
21545;BME280;10933;50.754;11.508;2024-03-07T00:51:39;100497.19;;;4.36;100.00
21545;BME280;10933;50.754;11.508;2024-03-07T00:54:05;100499.56;;;4.31;100.00
21545;BME280;10933;50.754;11.508;2024-03-07T00:56:32;100499.03;;;4.35;100.00
21545;BME280;10933;50.754;11.508;2024-03-07T00:58:59;100486.88;;;4.33;100.00
21545;BME280;10933;50.754;11.508;2024-03-07T01:01:25;100482.91;;;4.29;100.00
21545;BME280;10933;50.754;11.508;2024-03-07T01:03:52;100486.59;;;4.28;100.00
21545;BME280;10933;50.754;11.508;2024-03-07T01:06:18;100477.38;;;4.30;100.00
21545;BME280;10933;50.754;11.508;2024-03-07T01:08:46;100478.19;;;4.31;100.00
21545;BME280;10933;50.754;11.508;2024-03-07T01:11:12;100476.84;;;4.35;100.00
21545;BME280;10933;50.754;11.508;2024-03-07T01:13:39;100472.75;;;4.39;100.00
21545;BME280;10933;50.754;11.508;2024-03-07T01:16:05;100474.69;;;4.30;100.00
21545;BME280;10933;50.754;11.508;2024-03-07T01:18:32;100471.84;;;4.32;100.00
21545;BME280;10933;50.754;11.508;2024-03-07T01:21:02;100463.19;;;4.30;100.00
21545;BME280;10933;50.754;11.508;2024-03-07T01:23:28;100462.56;;;4.28;100.00
21545;BME280;10933;50.754;11.508;2024-03-07T01:25:58;100462.56;;;4.28;100.00
21545;BME280;10933;50.754;11.508;2024-03-07T01:28:27;100465.66;;;4.31;100.00
21545;BME280;10933;50.754;11.508;2024-03-07T01:30:57;100460.91;;;4.27;100.00
21545;BME280;10933;50.754;11.508;2024-03-07T01:33:24;100452.88;;;4.27;100.00
21545;BME280;10933;50.754;11.508;2024-03-07T01:35:50;100456.38;;;4.27;100.00
21545;BME280;10933;50.754;11.508;2024-03-07T01:38:16;100463.81;;;4.32;100.00
21545;BME280;10933;50.754;11.508;2024-03-07T01:40:43;100455.19;;;4.30;100.00
21545;BME280;10933;50.754;11.508;2024-03-07T01:43:10;100456.09;;;4.37;100.00
21545;BME280;10933;50.754;11.508;2024-03-07T01:45:37;100448.97;;;4.44;100.00
21545;BME280;10933;50.754;11.508;2024-03-07T01:48:09;100456.34;;;4.42;100.00
21545;BME280;10933;50.754;11.508;2024-03-07T01:50:38;100459.28;;;4.47;100.00
21545;BME280;10933;50.754;11.508;2024-03-07T01:53:06;100448.34;;;4.42;100.00
21545;BME280;10933;50.754;11.508;2024-03-07T01:55:33;100460.41;;;4.38;100.00
21545;BME280;10933;50.754;11.508;2024-03-07T01:58:00;100458.78;;;4.37;100.00
21545;BME280;10933;50.754;11.508;2024-03-07T02:00:28;100452.03;;;4.41;100.00
21545;BME280;10933;50.754;11.508;2024-03-07T02:02:54;100458.47;;;4.47;100.00
21545;BME280;10933;50.754;11.508;2024-03-07T02:05:21;100459.41;;;4.39;100.00
21545;BME280;10933;50.754;11.508;2024-03-07T02:07:48;100453.56;;;4.50;100.00
21545;BME280;10933;50.754;11.508;2024-03-07T02:10:15;100457.25;;;4.49;100.00
21545;BME280;10933;50.754;11.508;2024-03-07T02:12:43;100456.16;;;4.43;100.00
21545;BME280;10933;50.754;11.508;2024-03-07T02:15:09;100458.00;;;4.43;100.00
21545;BME280;10933;50.754;11.508;2024-03-07T02:17:36;100455.59;;;4.48;100.00
21545;BME280;10933;50.754;11.508;2024-03-07T02:20:03;100460.66;;;4.43;100.00
21545;BME280;10933;50.754;11.508;2024-03-07T02:22:30;100463.81;;;4.47;100.00
21545;BME280;10933;50.754;11.508;2024-03-07T02:24:56;100461.25;;;4.38;100.00
21545;BME280;10933;50.754;11.508;2024-03-07T02:27:22;100449.41;;;4.26;100.00
21545;BME280;10933;50.754;11.508;2024-03-07T02:29:49;100450.13;;;4.35;100.00
21545;BME280;10933;50.754;11.508;2024-03-07T02:32:17;100450.78;;;4.58;100.00
21545;BME280;10933;50.754;11.508;2024-03-07T02:34:43;100451.03;;;4.85;100.00
21545;BME280;10933;50.754;11.508;2024-03-07T02:37:09;100448.28;;;4.99;100.00
21545;BME280;10933;50.754;11.508;2024-03-07T02:39:36;100451.16;;;4.77;100.00
21545;BME280;10933;50.754;11.508;2024-03-07T02:42:03;100452.81;;;4.78;100.00
21545;BME280;10933;50.754;11.508;2024-03-07T02:44:29;100450.22;;;4.63;100.00
21545;BME280;10933;50.754;11.508;2024-03-07T02:46:58;100440.59;;;4.47;100.00
21545;BME280;10933;50.754;11.508;2024-03-07T02:49:24;100437.44;;;4.43;100.00
21545;BME280;10933;50.754;11.508;2024-03-07T02:51:50;100426.31;;;4.40;100.00
21545;BME280;10933;50.754;11.508;2024-03-07T02:54:16;100432.31;;;4.42;100.00
21545;BME280;10933;50.754;11.508;2024-03-07T02:56:42;100433.66;;;4.74;100.00
21545;BME280;10933;50.754;11.508;2024-03-07T02:59:08;100436.03;;;4.62;100.00
21545;BME280;10933;50.754;11.508;2024-03-07T03:01:34;100430.94;;;4.46;100.00
21545;BME280;10933;50.754;11.508;2024-03-07T03:04:01;100433.31;;;4.41;100.00
21545;BME280;10933;50.754;11.508;2024-03-07T03:06:27;100429.63;;;4.42;100.00
21545;BME280;10933;50.754;11.508;2024-03-07T03:08:53;100434.97;;;4.42;100.00
21545;BME280;10933;50.754;11.508;2024-03-07T03:11:20;100437.78;;;4.55;100.00
21545;BME280;10933;50.754;11.508;2024-03-07T03:13:46;100435.63;;;4.65;100.00
21545;BME280;10933;50.754;11.508;2024-03-07T03:16:14;100437.72;;;4.70;100.00
21545;BME280;10933;50.754;11.508;2024-03-07T03:18:41;100441.72;;;4.81;100.00
21545;BME280;10933;50.754;11.508;2024-03-07T03:21:07;100429.66;;;4.85;100.00
21545;BME280;10933;50.754;11.508;2024-03-07T03:23:33;100447.28;;;4.79;100.00
21545;BME280;10933;50.754;11.508;2024-03-07T03:26:00;100441.38;;;4.62;100.00
21545;BME280;10933;50.754;11.508;2024-03-07T03:28:26;100441.84;;;4.94;100.00
21545;BME280;10933;50.754;11.508;2024-03-07T03:30:52;100433.31;;;5.05;100.00
21545;BME280;10933;50.754;11.508;2024-03-07T03:33:19;100427.50;;;4.73;100.00
21545;BME280;10933;50.754;11.508;2024-03-07T03:35:47;100427.31;;;4.75;100.00
21545;BME280;10933;50.754;11.508;2024-03-07T03:38:13;100428.47;;;4.94;100.00
21545;BME280;10933;50.754;11.508;2024-03-07T03:40:39;100428.88;;;4.91;100.00
21545;BME280;10933;50.754;11.508;2024-03-07T03:43:06;100432.06;;;5.01;100.00
21545;BME280;10933;50.754;11.508;2024-03-07T03:45:32;100427.56;;;5.08;100.00
21545;BME280;10933;50.754;11.508;2024-03-07T03:48:00;100421.88;;;4.90;100.00
21545;BME280;10933;50.754;11.508;2024-03-07T03:50:26;100414.25;;;4.65;100.00
21545;BME280;10933;50.754;11.508;2024-03-07T03:52:53;100411.34;;;4.60;100.00
21545;BME280;10933;50.754;11.508;2024-03-07T03:55:19;100408.63;;;4.82;100.00
21545;BME280;10933;50.754;11.508;2024-03-07T03:57:46;100411.91;;;4.77;100.00
21545;BME280;10933;50.754;11.508;2024-03-07T04:00:15;100404.69;;;4.78;100.00
21545;BME280;10933;50.754;11.508;2024-03-07T04:02:46;100406.63;;;4.84;100.00
21545;BME280;10933;50.754;11.508;2024-03-07T04:05:19;100403.38;;;4.46;100.00
21545;BME280;10933;50.754;11.508;2024-03-07T04:07:46;100409.28;;;4.62;100.00
21545;BME280;10933;50.754;11.508;2024-03-07T04:10:14;100417.03;;;5.00;100.00
21545;BME280;10933;50.754;11.508;2024-03-07T04:12:41;100411.13;;;4.62;100.00
21545;BME280;10933;50.754;11.508;2024-03-07T04:15:09;100413.38;;;4.58;100.00
21545;BME280;10933;50.754;11.508;2024-03-07T04:17:36;100405.41;;;4.65;100.00
21545;BME280;10933;50.754;11.508;2024-03-07T04:20:04;100398.97;;;4.38;100.00
21545;BME280;10933;50.754;11.508;2024-03-07T04:22:32;100388.53;;;4.22;100.00
21545;BME280;10933;50.754;11.508;2024-03-07T04:24:59;100392.63;;;4.39;100.00
21545;BME280;10933;50.754;11.508;2024-03-07T04:27:25;100380.88;;;4.19;100.00
21545;BME280;10933;50.754;11.508;2024-03-07T04:29:52;100381.59;;;4.27;100.00
21545;BME280;10933;50.754;11.508;2024-03-07T04:32:18;100376.03;;;4.22;100.00
21545;BME280;10933;50.754;11.508;2024-03-07T04:34:45;100377.38;;;4.33;100.00
21545;BME280;10933;50.754;11.508;2024-03-07T04:37:11;100365.78;;;4.26;100.00
21545;BME280;10933;50.754;11.508;2024-03-07T04:39:40;100365.88;;;4.18;100.00
21545;BME280;10933;50.754;11.508;2024-03-07T04:42:08;100357.69;;;4.19;100.00
21545;BME280;10933;50.754;11.508;2024-03-07T04:44:36;100357.13;;;4.24;100.00
21545;BME280;10933;50.754;11.508;2024-03-07T04:47:03;100357.06;;;4.17;100.00
21545;BME280;10933;50.754;11.508;2024-03-07T04:49:32;100353.81;;;4.22;100.00
21545;BME280;10933;50.754;11.508;2024-03-07T04:51:59;100354.66;;;4.22;100.00
21545;BME280;10933;50.754;11.508;2024-03-07T04:54:27;100355.47;;;4.23;100.00
21545;BME280;10933;50.754;11.508;2024-03-07T04:56:53;100348.09;;;4.25;100.00
21545;BME280;10933;50.754;11.508;2024-03-07T04:59:21;100349.50;;;4.42;100.00
21545;BME280;10933;50.754;11.508;2024-03-07T05:01:48;100348.63;;;4.35;100.00
21545;BME280;10933;50.754;11.508;2024-03-07T05:04:16;100347.72;;;4.28;100.00
21545;BME280;10933;50.754;11.508;2024-03-07T05:06:42;100338.34;;;4.17;100.00
21545;BME280;10933;50.754;11.508;2024-03-07T05:09:10;100341.94;;;4.24;100.00
21545;BME280;10933;50.754;11.508;2024-03-07T05:11:49;100338.38;;;4.38;100.00
21545;BME280;10933;50.754;11.508;2024-03-07T05:14:17;100339.31;;;4.52;100.00
21545;BME280;10933;50.754;11.508;2024-03-07T05:16:43;100336.31;;;4.40;100.00
21545;BME280;10933;50.754;11.508;2024-03-07T05:19:10;100338.16;;;4.19;100.00
21545;BME280;10933;50.754;11.508;2024-03-07T05:21:36;100328.78;;;4.23;100.00
21545;BME280;10933;50.754;11.508;2024-03-07T05:24:07;100331.81;;;4.41;100.00
21545;BME280;10933;50.754;11.508;2024-03-07T05:26:36;100328.19;;;4.27;100.00
21545;BME280;10933;50.754;11.508;2024-03-07T05:29:11;100326.84;;;4.17;100.00
21545;BME280;10933;50.754;11.508;2024-03-07T05:31:38;100318.38;;;4.56;100.00
21545;BME280;10933;50.754;11.508;2024-03-07T05:34:05;100323.94;;;4.33;100.00
21545;BME280;10933;50.754;11.508;2024-03-07T05:36:35;100320.13;;;4.21;100.00
21545;BME280;10933;50.754;11.508;2024-03-07T05:39:02;100312.88;;;4.14;100.00
21545;BME280;10933;50.754;11.508;2024-03-07T05:41:39;100302.06;;;4.01;100.00
21545;BME280;10933;50.754;11.508;2024-03-07T05:44:06;100288.31;;;4.04;100.00
21545;BME280;10933;50.754;11.508;2024-03-07T05:46:39;100274.94;;;3.98;100.00
21545;BME280;10933;50.754;11.508;2024-03-07T05:49:14;100275.50;;;4.14;100.00
21545;BME280;10933;50.754;11.508;2024-03-07T05:51:41;100263.09;;;4.07;100.00
21545;BME280;10933;50.754;11.508;2024-03-07T05:54:13;100252.16;;;4.02;100.00
21545;BME280;10933;50.754;11.508;2024-03-07T05:56:40;100255.97;;;4.14;100.00
21545;BME280;10933;50.754;11.508;2024-03-07T05:59:07;100245.25;;;4.07;100.00
21545;BME280;10933;50.754;11.508;2024-03-07T06:01:35;100235.00;;;4.11;100.00
21545;BME280;10933;50.754;11.508;2024-03-07T06:04:03;100231.59;;;3.96;100.00
21545;BME280;10933;50.754;11.508;2024-03-07T06:06:32;100230.78;;;3.80;100.00
21545;BME280;10933;50.754;11.508;2024-03-07T06:09:03;100227.56;;;3.64;100.00
21545;BME280;10933;50.754;11.508;2024-03-07T06:11:42;100227.31;;;3.59;100.00
21545;BME280;10933;50.754;11.508;2024-03-07T06:14:09;100239.44;;;3.61;100.00
21545;BME280;10933;50.754;11.508;2024-03-07T06:16:37;100250.16;;;3.68;100.00
21545;BME280;10933;50.754;11.508;2024-03-07T06:19:05;100258.59;;;3.86;100.00
21545;BME280;10933;50.754;11.508;2024-03-07T06:21:34;100273.69;;;3.79;100.00
21545;BME280;10933;50.754;11.508;2024-03-07T06:24:01;100283.47;;;3.72;100.00
21545;BME280;10933;50.754;11.508;2024-03-07T06:26:31;100290.84;;;3.70;100.00
21545;BME280;10933;50.754;11.508;2024-03-07T06:29:15;100297.97;;;4.05;100.00
21545;BME280;10933;50.754;11.508;2024-03-07T06:31:45;100301.63;;;3.98;100.00
21545;BME280;10933;50.754;11.508;2024-03-07T06:34:14;100308.16;;;4.17;100.00
21545;BME280;10933;50.754;11.508;2024-03-07T06:36:41;100308.41;;;4.43;100.00
21545;BME280;10933;50.754;11.508;2024-03-07T06:39:07;100306.31;;;4.38;100.00
21545;BME280;10933;50.754;11.508;2024-03-07T06:41:36;100297.50;;;4.66;100.00
21545;BME280;10933;50.754;11.508;2024-03-07T06:44:03;100285.59;;;4.68;100.00
21545;BME280;10933;50.754;11.508;2024-03-07T06:46:29;100269.72;;;4.32;100.00
21545;BME280;10933;50.754;11.508;2024-03-07T06:48:56;100280.06;;;3.99;100.00
21545;BME280;10933;50.754;11.508;2024-03-07T06:51:22;100299.41;;;4.23;100.00
21545;BME280;10933;50.754;11.508;2024-03-07T06:53:49;100295.63;;;4.38;100.00
21545;BME280;10933;50.754;11.508;2024-03-07T06:56:16;100290.88;;;4.12;100.00
21545;BME280;10933;50.754;11.508;2024-03-07T06:58:43;100299.78;;;3.98;100.00
21545;BME280;10933;50.754;11.508;2024-03-07T07:01:11;100320.19;;;4.27;100.00
21545;BME280;10933;50.754;11.508;2024-03-07T07:03:41;100315.63;;;4.70;100.00
21545;BME280;10933;50.754;11.508;2024-03-07T07:06:09;100305.41;;;4.31;100.00
21545;BME280;10933;50.754;11.508;2024-03-07T07:08:36;100314.91;;;4.12;100.00
21545;BME280;10933;50.754;11.508;2024-03-07T07:11:02;100337.53;;;4.38;100.00
21545;BME280;10933;50.754;11.508;2024-03-07T07:13:30;100330.66;;;4.29;100.00
21545;BME280;10933;50.754;11.508;2024-03-07T07:15:56;100342.88;;;4.38;100.00
21545;BME280;10933;50.754;11.508;2024-03-07T07:18:22;100333.47;;;3.99;100.00
21545;BME280;10933;50.754;11.508;2024-03-07T07:20:50;100348.81;;;4.33;100.00
21545;BME280;10933;50.754;11.508;2024-03-07T07:23:19;100350.19;;;4.51;100.00
21545;BME280;10933;50.754;11.508;2024-03-07T07:25:46;100355.22;;;4.88;100.00
21545;BME280;10933;50.754;11.508;2024-03-07T07:28:12;100333.72;;;4.96;100.00
21545;BME280;10933;50.754;11.508;2024-03-07T07:30:39;100309.44;;;4.70;100.00
21545;BME280;10933;50.754;11.508;2024-03-07T07:33:05;100305.41;;;4.31;100.00
21545;BME280;10933;50.754;11.508;2024-03-07T07:35:31;100303.41;;;4.33;100.00
21545;BME280;10933;50.754;11.508;2024-03-07T07:38:00;100321.63;;;4.51;100.00
21545;BME280;10933;50.754;11.508;2024-03-07T07:40:26;100330.34;;;4.60;100.00
21545;BME280;10933;50.754;11.508;2024-03-07T07:42:54;100332.84;;;4.68;100.00
21545;BME280;10933;50.754;11.508;2024-03-07T07:45:23;100330.09;;;4.83;100.00
21545;BME280;10933;50.754;11.508;2024-03-07T07:47:51;100323.41;;;4.44;100.00
21545;BME280;10933;50.754;11.508;2024-03-07T07:50:19;100318.94;;;4.72;100.00
21545;BME280;10933;50.754;11.508;2024-03-07T07:52:48;100323.97;;;4.89;100.00
21545;BME280;10933;50.754;11.508;2024-03-07T07:55:16;100306.78;;;4.98;100.00
21545;BME280;10933;50.754;11.508;2024-03-07T07:57:44;100302.06;;;5.07;100.00
21545;BME280;10933;50.754;11.508;2024-03-07T08:00:15;100296.09;;;4.98;100.00
21545;BME280;10933;50.754;11.508;2024-03-07T08:03:01;100277.91;;;4.87;100.00
21545;BME280;10933;50.754;11.508;2024-03-07T08:05:35;100276.06;;;5.28;100.00
21545;BME280;10933;50.754;11.508;2024-03-07T08:08:03;100263.31;;;5.30;100.00
21545;BME280;10933;50.754;11.508;2024-03-07T08:10:31;100256.78;;;5.40;100.00
21545;BME280;10933;50.754;11.508;2024-03-07T08:12:58;100248.97;;;5.45;100.00
21545;BME280;10933;50.754;11.508;2024-03-07T08:15:26;100247.31;;;5.44;100.00
21545;BME280;10933;50.754;11.508;2024-03-07T08:17:54;100243.94;;;5.83;100.00
21545;BME280;10933;50.754;11.508;2024-03-07T08:20:24;100229.66;;;5.56;100.00
21545;BME280;10933;50.754;11.508;2024-03-07T08:22:53;100229.75;;;5.89;100.00
21545;BME280;10933;50.754;11.508;2024-03-07T08:25:25;100202.09;;;5.62;100.00
21545;BME280;10933;50.754;11.508;2024-03-07T08:27:53;100204.81;;;5.14;100.00
21545;BME280;10933;50.754;11.508;2024-03-07T08:30:20;100202.94;;;4.67;100.00
21545;BME280;10933;50.754;11.508;2024-03-07T08:32:51;100214.94;;;4.78;100.00
21545;BME280;10933;50.754;11.508;2024-03-07T08:35:18;100229.56;;;5.29;100.00
21545;BME280;10933;50.754;11.508;2024-03-07T08:37:46;100235.03;;;5.63;100.00
21545;BME280;10933;50.754;11.508;2024-03-07T08:40:12;100228.88;;;5.62;100.00
21545;BME280;10933;50.754;11.508;2024-03-07T08:42:51;100214.53;;;6.42;100.00
21545;BME280;10933;50.754;11.508;2024-03-07T08:45:19;100187.88;;;7.32;100.00
21545;BME280;10933;50.754;11.508;2024-03-07T08:47:46;100157.88;;;7.03;100.00
21545;BME280;10933;50.754;11.508;2024-03-07T08:50:13;100142.69;;;7.29;100.00
21545;BME280;10933;50.754;11.508;2024-03-07T08:52:40;100132.63;;;7.18;100.00
21545;BME280;10933;50.754;11.508;2024-03-07T08:55:07;100134.50;;;7.49;100.00
21545;BME280;10933;50.754;11.508;2024-03-07T08:57:41;100127.34;;;7.36;100.00
21545;BME280;10933;50.754;11.508;2024-03-07T09:00:08;100135.09;;;6.68;100.00
21545;BME280;10933;50.754;11.508;2024-03-07T09:02:35;100137.88;;;6.99;100.00
21545;BME280;10933;50.754;11.508;2024-03-07T09:05:02;100134.78;;;7.02;100.00
21545;BME280;10933;50.754;11.508;2024-03-07T09:07:28;100136.56;;;6.57;100.00
21545;BME280;10933;50.754;11.508;2024-03-07T09:09:58;100141.53;;;6.54;100.00
21545;BME280;10933;50.754;11.508;2024-03-07T09:12:24;100147.75;;;6.34;100.00
21545;BME280;10933;50.754;11.508;2024-03-07T09:14:54;100150.25;;;6.09;100.00
21545;BME280;10933;50.754;11.508;2024-03-07T09:17:21;100142.03;;;6.11;100.00
21545;BME280;10933;50.754;11.508;2024-03-07T09:19:48;100139.56;;;6.03;100.00
21545;BME280;10933;50.754;11.508;2024-03-07T09:22:14;100137.06;;;6.28;100.00
21545;BME280;10933;50.754;11.508;2024-03-07T09:24:40;100131.63;;;6.47;100.00
21545;BME280;10933;50.754;11.508;2024-03-07T09:27:06;100133.66;;;6.65;100.00
21545;BME280;10933;50.754;11.508;2024-03-07T09:29:34;100144.44;;;6.45;100.00
21545;BME280;10933;50.754;11.508;2024-03-07T09:32:00;100162.19;;;6.33;100.00
21545;BME280;10933;50.754;11.508;2024-03-07T09:34:26;100160.72;;;6.51;100.00
21545;BME280;10933;50.754;11.508;2024-03-07T09:36:52;100170.59;;;6.57;100.00
21545;BME280;10933;50.754;11.508;2024-03-07T09:39:20;100185.81;;;6.69;100.00
21545;BME280;10933;50.754;11.508;2024-03-07T09:41:46;100203.19;;;6.54;100.00
21545;BME280;10933;50.754;11.508;2024-03-07T09:44:16;100212.84;;;6.74;100.00
21545;BME280;10933;50.754;11.508;2024-03-07T09:46:48;100218.75;;;7.03;100.00
21545;BME280;10933;50.754;11.508;2024-03-07T09:49:16;100267.94;;;6.44;100.00
21545;BME280;10933;50.754;11.508;2024-03-07T09:51:44;100281.34;;;6.37;100.00
21545;BME280;10933;50.754;11.508;2024-03-07T09:54:11;100285.84;;;6.30;100.00
21545;BME280;10933;50.754;11.508;2024-03-07T09:56:39;100290.56;;;6.02;100.00
21545;BME280;10933;50.754;11.508;2024-03-07T09:59:11;100301.53;;;6.40;100.00
21545;BME280;10933;50.754;11.508;2024-03-07T10:01:38;100307.91;;;6.45;100.00
21545;BME280;10933;50.754;11.508;2024-03-07T10:04:07;100336.09;;;7.41;100.00
21545;BME280;10933;50.754;11.508;2024-03-07T10:06:43;100350.34;;;7.86;100.00
21545;BME280;10933;50.754;11.508;2024-03-07T10:09:13;100355.72;;;7.92;100.00
21545;BME280;10933;50.754;11.508;2024-03-07T10:11:43;100349.38;;;6.76;100.00
21545;BME280;10933;50.754;11.508;2024-03-07T10:14:12;100333.09;;;6.77;100.00
21545;BME280;10933;50.754;11.508;2024-03-07T10:16:39;100338.22;;;7.05;100.00
21545;BME280;10933;50.754;11.508;2024-03-07T10:19:07;100341.13;;;8.76;100.00
21545;BME280;10933;50.754;11.508;2024-03-07T10:21:35;100373.19;;;7.57;100.00
21545;BME280;10933;50.754;11.508;2024-03-07T10:24:08;100371.84;;;6.95;100.00
21545;BME280;10933;50.754;11.508;2024-03-07T10:26:38;100369.16;;;6.35;100.00
21545;BME280;10933;50.754;11.508;2024-03-07T10:29:13;100368.69;;;6.18;100.00
21545;BME280;10933;50.754;11.508;2024-03-07T10:31:39;100365.41;;;6.23;100.00
21545;BME280;10933;50.754;11.508;2024-03-07T10:34:07;100359.00;;;6.11;100.00
21545;BME280;10933;50.754;11.508;2024-03-07T10:36:34;100355.91;;;6.14;100.00
21545;BME280;10933;50.754;11.508;2024-03-07T10:39:02;100364.94;;;6.06;100.00
21545;BME280;10933;50.754;11.508;2024-03-07T10:41:49;100357.97;;;6.12;100.00
21545;BME280;10933;50.754;11.508;2024-03-07T10:44:25;100365.38;;;6.10;100.00
21545;BME280;10933;50.754;11.508;2024-03-07T10:46:53;100369.50;;;6.12;100.00
21545;BME280;10933;50.754;11.508;2024-03-07T10:49:21;100386.22;;;6.28;100.00
21545;BME280;10933;50.754;11.508;2024-03-07T10:52:13;100377.34;;;6.14;100.00
21545;BME280;10933;50.754;11.508;2024-03-07T10:55:03;100381.72;;;5.80;100.00
21545;BME280;10933;50.754;11.508;2024-03-07T10:57:50;100382.00;;;5.92;100.00
21545;BME280;10933;50.754;11.508;2024-03-07T11:00:27;100389.16;;;5.85;100.00
21545;BME280;10933;50.754;11.508;2024-03-07T11:03:02;100392.09;;;5.97;100.00
21545;BME280;10933;50.754;11.508;2024-03-07T11:05:33;100395.69;;;6.17;100.00
21545;BME280;10933;50.754;11.508;2024-03-07T11:08:01;100390.84;;;5.93;100.00
21545;BME280;10933;50.754;11.508;2024-03-07T11:10:37;100395.47;;;6.12;100.00
21545;BME280;10933;50.754;11.508;2024-03-07T11:13:05;100396.38;;;5.84;100.00
21545;BME280;10933;50.754;11.508;2024-03-07T11:15:33;100388.00;;;6.01;100.00
21545;BME280;10933;50.754;11.508;2024-03-07T11:18:00;100391.34;;;6.16;100.00
21545;BME280;10933;50.754;11.508;2024-03-07T11:20:33;100398.56;;;6.22;100.00
21545;BME280;10933;50.754;11.508;2024-03-07T11:23:00;100408.66;;;6.20;100.00
21545;BME280;10933;50.754;11.508;2024-03-07T11:25:27;100404.16;;;6.34;100.00
21545;BME280;10933;50.754;11.508;2024-03-07T11:27:58;100408.78;;;6.73;100.00
21545;BME280;10933;50.754;11.508;2024-03-07T11:30:25;100415.94;;;6.39;100.00
21545;BME280;10933;50.754;11.508;2024-03-07T11:32:53;100424.34;;;6.23;100.00
21545;BME280;10933;50.754;11.508;2024-03-07T11:35:32;100424.16;;;6.31;100.00
21545;BME280;10933;50.754;11.508;2024-03-07T11:38:01;100428.50;;;6.32;100.00
21545;BME280;10933;50.754;11.508;2024-03-07T11:42:56;100428.13;;;6.55;100.00
21545;BME280;10933;50.754;11.508;2024-03-07T11:45:26;100426.47;;;6.47;100.00
21545;BME280;10933;50.754;11.508;2024-03-07T11:47:54;100423.97;;;6.39;100.00
21545;BME280;10933;50.754;11.508;2024-03-07T11:50:29;100422.38;;;6.58;100.00
21545;BME280;10933;50.754;11.508;2024-03-07T11:53:01;100427.25;;;6.28;100.00
21545;BME280;10933;50.754;11.508;2024-03-07T11:55:28;100413.25;;;6.39;100.00
21545;BME280;10933;50.754;11.508;2024-03-07T11:57:55;100406.59;;;6.22;100.00
21545;BME280;10933;50.754;11.508;2024-03-07T12:00:21;100405.81;;;6.35;100.00
21545;BME280;10933;50.754;11.508;2024-03-07T12:02:53;100408.72;;;6.40;100.00
21545;BME280;10933;50.754;11.508;2024-03-07T12:05:19;100407.78;;;6.00;100.00
21545;BME280;10933;50.754;11.508;2024-03-07T12:07:46;100402.44;;;6.06;100.00
21545;BME280;10933;50.754;11.508;2024-03-07T12:10:13;100400.06;;;6.44;100.00
21545;BME280;10933;50.754;11.508;2024-03-07T12:12:39;100396.25;;;6.06;100.00
21545;BME280;10933;50.754;11.508;2024-03-07T12:15:06;100398.72;;;6.01;100.00
21545;BME280;10933;50.754;11.508;2024-03-07T12:17:41;100404.25;;;5.93;100.00
21545;BME280;10933;50.754;11.508;2024-03-07T12:20:08;100405.41;;;6.31;100.00
21545;BME280;10933;50.754;11.508;2024-03-07T12:22:51;100398.31;;;6.04;100.00
21545;BME280;10933;50.754;11.508;2024-03-07T12:25:19;100407.88;;;6.33;100.00
21545;BME280;10933;50.754;11.508;2024-03-07T12:28:08;100401.63;;;6.06;100.00
21545;BME280;10933;50.754;11.508;2024-03-07T12:30:51;100403.78;;;6.43;100.00
21545;BME280;10933;50.754;11.508;2024-03-07T12:33:19;100410.13;;;6.23;100.00
21545;BME280;10933;50.754;11.508;2024-03-07T12:35:50;100400.38;;;6.08;100.00
21545;BME280;10933;50.754;11.508;2024-03-07T12:38:19;100403.88;;;6.09;100.00
21545;BME280;10933;50.754;11.508;2024-03-07T12:40:46;100402.84;;;6.03;100.00
21545;BME280;10933;50.754;11.508;2024-03-07T12:43:22;100395.00;;;6.02;100.00
21545;BME280;10933;50.754;11.508;2024-03-07T12:45:52;100408.25;;;5.75;100.00
21545;BME280;10933;50.754;11.508;2024-03-07T12:48:20;100399.50;;;5.95;100.00